createdAt,value
2022-12-16T00:02:01.857Z,95.88
2022-12-16T00:07:03.294Z,96.33
2022-12-16T00:12:05.275Z,96.71
2022-12-16T00:17:06.835Z,96.35
2022-12-16T00:22:08.255Z,95.89
2022-12-16T00:27:09.709Z,96.11
2022-12-16T00:32:11.099Z,96.71
2022-12-16T00:37:13.368Z,96.95
2022-12-16T00:42:14.839Z,96.30
2022-12-16T00:47:16.248Z,96.76
2022-12-16T00:52:17.686Z,96.88
2022-12-16T00:57:19.172Z,97.04
2022-12-16T01:02:20.670Z,97.39
2022-12-16T01:07:22.176Z,97.30
2022-12-16T01:12:24.104Z,96.64
2022-12-16T01:17:26.068Z,97.02
2022-12-16T01:22:32.837Z,97.95
2022-12-16T01:27:34.239Z,97.68
2022-12-16T01:32:36.092Z,98.08
2022-12-16T01:37:37.611Z,97.88
2022-12-16T01:42:39.152Z,98.27
2022-12-16T01:47:40.592Z,98.85
2022-12-16T01:52:48.842Z,98.69
2022-12-16T01:58:02.266Z,99.06
2022-12-16T02:03:04.499Z,99.45
2022-12-16T02:08:05.947Z,100.00
2022-12-16T02:13:26.400Z,99.87
2022-12-16T02:18:56.707Z,99.86
2022-12-16T02:24:13.625Z,100.00
2022-12-16T02:29:36.020Z,100.00
2022-12-16T02:34:57.311Z,99.41
2022-12-16T02:40:06.836Z,99.43
2022-12-16T02:45:15.866Z,99.08
2022-12-16T02:50:20.341Z,98.51
2022-12-16T02:55:32.749Z,98.30
2022-12-16T03:01:00.612Z,97.49
2022-12-16T03:06:04.697Z,97.50
2022-12-16T03:11:10.328Z,97.04
2022-12-16T03:16:17.647Z,96.64
2022-12-16T03:21:25.332Z,96.37
2022-12-16T03:27:02.421Z,95.90
2022-12-16T03:32:15.410Z,95.58
2022-12-16T03:37:20.476Z,95.83
2022-12-16T03:42:23.634Z,95.74
2022-12-16T03:47:29.197Z,95.68
2022-12-16T03:52:30.577Z,95.17
2022-12-16T03:57:31.954Z,95.48
2022-12-16T04:02:33.671Z,94.39
2022-12-16T04:07:35.245Z,94.56
2022-12-16T04:12:55.496Z,94.33
2022-12-16T04:18:15.910Z,93.57
2022-12-16T04:23:36.219Z,93.55
2022-12-16T04:28:37.709Z,94.19
2022-12-16T04:33:58.681Z,93.36
2022-12-16T04:39:18.495Z,92.99
2022-12-16T04:44:38.595Z,92.63
2022-12-16T04:49:58.864Z,92.88
2022-12-16T04:55:18.812Z,93.32
2022-12-16T05:00:38.730Z,93.43
2022-12-16T05:05:58.503Z,93.27
2022-12-16T05:11:18.308Z,92.88
2022-12-16T05:16:38.165Z,92.61
2022-12-16T05:21:57.906Z,92.47
2022-12-16T05:27:17.986Z,92.60
2022-12-16T05:32:37.694Z,92.64
2022-12-16T05:37:57.728Z,91.96
2022-12-16T05:43:17.589Z,91.71
2022-12-16T05:48:37.676Z,91.75
2022-12-16T05:53:57.551Z,92.24
2022-12-16T05:59:17.743Z,91.70
2022-12-16T06:04:37.674Z,91.33
2022-12-16T06:09:57.552Z,91.28
2022-12-16T06:15:17.443Z,90.61
2022-12-16T06:20:37.405Z,90.69
2022-12-16T06:25:58.159Z,90.81
2022-12-16T06:31:18.112Z,91.05
2022-12-16T06:36:38.460Z,91.37
2022-12-16T06:41:58.207Z,92.26
2022-12-16T06:47:18.132Z,92.55
2022-12-16T06:52:37.932Z,92.53
2022-12-16T06:57:57.713Z,92.38
2022-12-16T07:03:17.541Z,92.69
2022-12-16T07:08:37.570Z,92.82
2022-12-16T07:13:57.395Z,92.15
2022-12-16T07:19:17.217Z,91.85
2022-12-16T07:24:37.151Z,92.65
2022-12-16T07:29:57.105Z,92.68
2022-12-16T07:35:17.156Z,92.34
2022-12-16T07:40:37.007Z,93.10
2022-12-16T07:45:56.838Z,92.59
2022-12-16T07:51:16.757Z,92.92
2022-12-16T07:56:36.595Z,92.19
2022-12-16T08:01:56.935Z,92.39
2022-12-16T08:07:17.066Z,90.91
2022-12-16T08:12:37.419Z,90.48
2022-12-16T08:17:57.411Z,90.29
2022-12-16T08:23:17.426Z,85.51
2022-12-16T08:28:37.225Z,81.61
2022-12-16T08:33:57.200Z,80.06
2022-12-16T08:39:17.116Z,80.08
2022-12-16T08:44:36.954Z,79.82
2022-12-16T08:49:59.903Z,79.33
2022-12-16T08:55:27.772Z,79.87
2022-12-16T09:00:49.445Z,80.17
2022-12-16T09:06:09.331Z,79.41
2022-12-16T09:11:29.331Z,78.41
2022-12-16T09:16:49.308Z,77.16
2022-12-16T09:22:09.256Z,76.54
2022-12-16T09:27:29.131Z,73.39
2022-12-16T09:32:49.155Z,69.13
2022-12-16T09:38:09.544Z,70.95
2022-12-16T09:43:41.732Z,67.01
2022-12-16T09:49:25.207Z,72.83
2022-12-16T09:54:48.126Z,73.91
2022-12-16T10:00:19.685Z,73.80
2022-12-16T10:05:52.049Z,74.56
2022-12-16T10:11:26.155Z,73.93
2022-12-16T10:17:04.505Z,74.20
2022-12-16T10:22:33.235Z,74.46
2022-12-16T10:28:00.771Z,74.43
2022-12-16T10:33:21.254Z,74.09
2022-12-16T10:38:55.649Z,72.87
2022-12-16T10:44:17.624Z,74.25
2022-12-16T10:49:38.696Z,75.28
2022-12-16T10:55:05.102Z,74.88
2022-12-16T11:00:55.986Z,74.49
2022-12-16T11:06:18.969Z,74.71
2022-12-16T11:11:49.976Z,73.12
2022-12-16T11:17:32.704Z,73.33
2022-12-16T11:22:52.337Z,69.52
2022-12-16T11:28:35.319Z,71.60
2022-12-16T11:33:55.672Z,67.75
2022-12-16T11:39:16.340Z,67.64
2022-12-16T11:44:38.507Z,66.26
2022-12-16T11:49:58.848Z,63.42
2022-12-16T11:55:48.155Z,62.45
2022-12-16T12:01:16.589Z,62.96
2022-12-16T12:07:02.634Z,63.95
2022-12-16T12:12:41.532Z,62.44
2022-12-16T12:18:39.272Z,63.64
2022-12-16T12:24:16.085Z,61.55
2022-12-16T12:29:45.588Z,64.14
2022-12-16T12:35:27.129Z,64.74
2022-12-16T12:40:46.991Z,65.72
2022-12-16T12:46:15.858Z,66.43
2022-12-16T12:52:17.973Z,64.45
2022-12-16T12:57:44.606Z,66.24
2022-12-16T13:03:14.341Z,66.58
2022-12-16T13:08:55.996Z,67.12
2022-12-16T13:14:16.299Z,68.19
2022-12-16T13:19:48.235Z,67.27
2022-12-16T13:25:09.751Z,67.92
2022-12-16T13:30:29.513Z,68.85
2022-12-16T13:35:49.821Z,68.29
2022-12-16T13:41:17.959Z,69.01
2022-12-16T13:46:37.684Z,68.08
2022-12-16T13:51:57.636Z,68.86
2022-12-16T13:57:19.445Z,69.35
2022-12-16T14:03:10.136Z,69.24
2022-12-16T14:08:35.577Z,69.91
2022-12-16T14:14:20.908Z,70.09
2022-12-16T14:19:59.798Z,70.27
2022-12-16T14:25:32.371Z,69.64
2022-12-16T14:30:52.705Z,70.93
2022-12-16T14:36:12.723Z,70.92
2022-12-16T14:41:36.628Z,70.89
2022-12-16T14:46:57.148Z,70.58
2022-12-16T14:52:16.935Z,70.60
2022-12-16T14:57:39.344Z,71.21
2022-12-16T15:03:04.870Z,71.70
2022-12-16T15:08:30.135Z,72.02
2022-12-16T15:13:55.738Z,72.12
2022-12-16T15:19:20.909Z,72.05
2022-12-16T15:24:43.673Z,72.46
2022-12-16T15:30:04.182Z,73.07
2022-12-16T15:35:24.299Z,73.21
2022-12-16T15:40:49.191Z,73.58
2022-12-16T15:46:10.056Z,73.23
2022-12-16T15:51:50.535Z,72.62
2022-12-16T15:57:10.496Z,73.01
2022-12-16T16:02:39.237Z,74.05
2022-12-16T16:08:03.804Z,74.22
2022-12-16T16:13:27.288Z,74.66
2022-12-16T16:18:47.241Z,74.16
2022-12-16T16:24:07.048Z,74.82
2022-12-16T16:29:29.594Z,74.78
2022-12-16T16:34:49.943Z,74.86
2022-12-16T16:40:09.930Z,74.83
2022-12-16T16:45:30.266Z,74.71
2022-12-16T16:50:50.126Z,75.60
2022-12-16T16:56:18.126Z,75.08
2022-12-16T17:01:39.844Z,75.49
2022-12-16T17:07:00.009Z,76.33
2022-12-16T17:12:19.826Z,76.18
2022-12-16T17:17:39.660Z,76.99
2022-12-16T17:22:59.869Z,77.70
2022-12-16T17:28:20.763Z,77.80
2022-12-16T17:33:40.632Z,78.29
2022-12-16T17:39:02.574Z,77.88
2022-12-16T17:44:23.009Z,78.83
2022-12-16T17:49:42.873Z,77.81
2022-12-16T17:55:02.710Z,78.33
2022-12-16T18:00:23.068Z,78.58
2022-12-16T18:05:44.847Z,78.88
2022-12-16T18:11:04.848Z,78.58
2022-12-16T18:16:24.931Z,78.41
2022-12-16T18:21:45.027Z,78.12
2022-12-16T18:27:04.890Z,78.88
2022-12-16T18:32:24.800Z,78.38
2022-12-16T18:37:44.763Z,78.63
2022-12-16T18:43:04.936Z,78.69
2022-12-16T18:48:24.785Z,78.59
2022-12-16T18:53:44.707Z,78.84
2022-12-16T18:59:04.514Z,79.21
2022-12-16T19:04:24.400Z,79.92
2022-12-16T19:09:44.759Z,80.25
2022-12-16T19:15:04.843Z,80.59
2022-12-16T19:20:29.925Z,80.44
2022-12-16T19:26:03.318Z,80.79
2022-12-16T19:31:28.133Z,82.38
2022-12-16T19:36:51.048Z,81.70
2022-12-16T19:42:11.885Z,81.51
2022-12-16T19:47:31.720Z,82.36
2022-12-16T19:52:51.729Z,82.23
2022-12-16T19:58:11.659Z,81.84
2022-12-16T20:03:35.670Z,82.16
2022-12-16T20:08:55.840Z,82.37
2022-12-16T20:14:16.131Z,82.60
2022-12-16T20:19:37.434Z,83.38
2022-12-16T20:24:59.065Z,84.06
2022-12-16T20:30:19.005Z,82.99
2022-12-16T20:35:38.897Z,82.90
2022-12-16T20:40:58.679Z,83.60
2022-12-16T20:46:18.567Z,83.51
2022-12-16T20:51:38.721Z,84.58
2022-12-16T20:56:58.656Z,85.28
2022-12-16T21:02:31.635Z,85.32
2022-12-16T21:07:53.892Z,85.08
2022-12-16T21:13:13.800Z,85.43
2022-12-16T21:18:33.629Z,86.00
2022-12-16T21:23:53.526Z,85.68
2022-12-16T21:29:13.478Z,86.63
2022-12-16T21:34:33.309Z,86.33
2022-12-16T21:39:54.750Z,86.55
2022-12-16T21:45:29.555Z,86.13
2022-12-16T21:50:50.084Z,85.90
2022-12-16T21:56:11.455Z,86.07
2022-12-16T22:01:31.477Z,87.33
2022-12-16T22:06:51.535Z,88.45
2022-12-16T22:12:11.928Z,86.78
2022-12-16T22:17:31.788Z,87.25
2022-12-16T22:22:51.749Z,87.29
2022-12-16T22:28:11.803Z,88.34
2022-12-16T22:33:31.635Z,87.38
2022-12-16T22:38:52.537Z,86.45
2022-12-16T22:44:12.490Z,87.00
2022-12-16T22:49:33.058Z,87.26
2022-12-16T22:54:53.338Z,87.37
2022-12-16T23:00:13.285Z,86.30
2022-12-16T23:05:33.076Z,87.06
2022-12-16T23:10:52.992Z,86.58
2022-12-16T23:16:17.019Z,86.58
2022-12-16T23:21:38.196Z,85.89
2022-12-16T23:26:58.214Z,86.21
2022-12-16T23:32:18.299Z,87.32
2022-12-16T23:37:38.211Z,85.22
2022-12-16T23:42:57.920Z,86.45
2022-12-16T23:48:27.403Z,86.09
2022-12-16T23:53:47.107Z,86.34
2022-12-16T23:59:07.491Z,88.26
